TimeEDT,TemperatureF,Dew PointF,Humidity,Sea Level PressureIn,VisibilityMPH,Wind Direction,Wind SpeedMPH,Gust SpeedMPH,PrecipitationIn,Events,Conditions,WindDirDegrees,DateUTC
12:53 AM,62.1,57.9,86,30.05,10.0,Calm,Calm,-,N/A,,Partly Cloudy,0,2013-05-09 04:53:00
1:53 AM,60.1,57.0,90,30.04,10.0,Calm,Calm,-,N/A,,Clear,0,2013-05-09 05:53:00
2:53 AM,57.9,55.9,93,30.04,10.0,Calm,Calm,-,N/A,,Clear,0,2013-05-09 06:53:00
3:53 AM,57.9,55.9,93,30.04,10.0,Calm,Calm,-,N/A,,Mostly Cloudy,0,2013-05-09 07:53:00
4:53 AM,57.9,55.9,93,30.06,10.0,Calm,Calm,-,N/A,,Mostly Cloudy,0,2013-05-09 08:53:00
5:53 AM,57.0,55.0,93,30.06,10.0,Calm,Calm,-,N/A,,Scattered Clouds,0,2013-05-09 09:53:00
6:53 AM,55.0,53.1,93,30.08,10.0,Calm,Calm,-,N/A,Fog,Shallow Fog,0,2013-05-09 10:53:00
7:53 AM,59.0,55.9,90,30.09,10.0,Calm,Calm,-,N/A,,Mostly Cloudy,0,2013-05-09 11:53:00
8:53 AM,63.0,57.9,84,30.10,10.0,Calm,Calm,-,N/A,,Scattered Clouds,0,2013-05-09 12:53:00
9:53 AM,66.9,59.0,76,30.11,10.0,Calm,Calm,-,N/A,,Scattered Clouds,0,2013-05-09 13:53:00
10:53 AM,72.0,59.0,64,30.11,10.0,Calm,Calm,-,N/A,,Scattered Clouds,0,2013-05-09 14:53:00
11:53 AM,78.1,55.9,46,30.10,10.0,West,8.1,16.1,N/A,,Scattered Clouds,260,2013-05-09 15:53:00
12:53 PM,80.6,53.6,39,30.12,10.0,West,8.1,-,N/A,,Scattered Clouds,280,2013-05-09 16:53:00
1:53 PM,81.0,52.0,36,30.09,10.0,Variable,5.8,-,N/A,,Scattered Clouds,0,2013-05-09 17:53:00
2:53 PM,80.1,50.0,35,30.08,10.0,SSW,3.5,-,N/A,,Mostly Cloudy,200,2013-05-09 18:53:00
3:53 PM,82.9,51.1,33,30.06,10.0,WSW,6.9,-,N/A,,Mostly Cloudy,250,2013-05-09 19:53:00
4:53 PM,82.0,53.1,37,30.04,10.0,WSW,10.4,-,N/A,,Scattered Clouds,240,2013-05-09 20:53:00
5:53 PM,81.0,54.0,39,30.03,10.0,WSW,5.8,-,N/A,,Scattered Clouds,250,2013-05-09 21:53:00
6:53 PM,81.0,54.0,39,30.01,10.0,WSW,6.9,-,N/A,,Scattered Clouds,240,2013-05-09 22:53:00
7:53 PM,79.0,55.0,44,30.01,10.0,SSW,3.5,-,N/A,,Mostly Cloudy,210,2013-05-09 23:53:00
8:53 PM,75.0,57.0,53,30.04,10.0,SSW,3.5,-,N/A,,Mostly Cloudy,210,2013-05-10 00:53:00
9:53 PM,72.0,59.0,64,30.04,10.0,South,4.6,-,N/A,,Mostly Cloudy,190,2013-05-10 01:53:00
10:53 PM,71.1,57.9,63,30.06,10.0,South,3.5,-,N/A,,Mostly Cloudy,190,2013-05-10 02:53:00
11:53 PM,70.0,57.9,65,30.06,10.0,South,3.5,-,N/A,,Mostly Cloudy,190,2013-05-10 03:53:00